sensor_id;sensor_type;location;lat;lon;timestamp;P1;durP1;ratioP1;P2;durP2;ratioP2
46757;SDS011;32509;47.750;-3.396;2023-04-03T00:01:38;3.35;;;2.30;;
46757;SDS011;32509;47.750;-3.396;2023-04-03T00:04:07;2.97;;;2.17;;
46757;SDS011;32509;47.750;-3.396;2023-04-03T00:06:32;2.65;;;2.03;;
46757;SDS011;32509;47.750;-3.396;2023-04-03T00:08:58;4.30;;;1.95;;
46757;SDS011;32509;47.750;-3.396;2023-04-03T00:11:24;3.28;;;2.10;;
46757;SDS011;32509;47.750;-3.396;2023-04-03T00:13:51;2.92;;;1.88;;
46757;SDS011;32509;47.750;-3.396;2023-04-03T00:16:17;3.30;;;2.10;;
46757;SDS011;32509;47.750;-3.396;2023-04-03T00:18:43;3.78;;;2.13;;
46757;SDS011;32509;47.750;-3.396;2023-04-03T00:21:09;1.90;;;1.77;;
46757;SDS011;32509;47.750;-3.396;2023-04-03T00:23:37;3.13;;;1.75;;
46757;SDS011;32509;47.750;-3.396;2023-04-03T00:26:03;3.47;;;2.15;;
46757;SDS011;32509;47.750;-3.396;2023-04-03T00:28:29;3.90;;;2.25;;
46757;SDS011;32509;47.750;-3.396;2023-04-03T00:30:55;3.55;;;1.80;;
46757;SDS011;32509;47.750;-3.396;2023-04-03T00:33:20;3.22;;;2.30;;
46757;SDS011;32509;47.750;-3.396;2023-04-03T00:35:50;3.17;;;2.05;;
46757;SDS011;32509;47.750;-3.396;2023-04-03T00:38:16;7.80;;;3.65;;
46757;SDS011;32509;47.750;-3.396;2023-04-03T00:40:43;2.90;;;2.10;;
46757;SDS011;32509;47.750;-3.396;2023-04-03T00:43:15;2.95;;;2.55;;
46757;SDS011;32509;47.750;-3.396;2023-04-03T00:45:42;6.78;;;2.25;;
46757;SDS011;32509;47.750;-3.396;2023-04-03T00:48:11;3.53;;;2.38;;
46757;SDS011;32509;47.750;-3.396;2023-04-03T00:50:42;3.75;;;2.42;;
46757;SDS011;32509;47.750;-3.396;2023-04-03T00:53:11;3.85;;;3.22;;
46757;SDS011;32509;47.750;-3.396;2023-04-03T00:55:41;3.58;;;2.40;;
46757;SDS011;32509;47.750;-3.396;2023-04-03T00:58:09;2.85;;;2.22;;
46757;SDS011;32509;47.750;-3.396;2023-04-03T01:00:37;3.33;;;2.00;;
46757;SDS011;32509;47.750;-3.396;2023-04-03T01:03:07;3.83;;;2.38;;
46757;SDS011;32509;47.750;-3.396;2023-04-03T01:05:33;2.92;;;2.55;;
46757;SDS011;32509;47.750;-3.396;2023-04-03T01:07:58;4.28;;;2.75;;
46757;SDS011;32509;47.750;-3.396;2023-04-03T01:10:25;4.10;;;2.50;;
46757;SDS011;32509;47.750;-3.396;2023-04-03T01:12:51;4.05;;;2.65;;
46757;SDS011;32509;47.750;-3.396;2023-04-03T01:15:22;6.07;;;3.33;;
46757;SDS011;32509;47.750;-3.396;2023-04-03T01:17:53;3.72;;;2.53;;
46757;SDS011;32509;47.750;-3.396;2023-04-03T01:20:31;3.47;;;2.90;;
46757;SDS011;32509;47.750;-3.396;2023-04-03T01:23:27;6.18;;;3.95;;
46757;SDS011;32509;47.750;-3.396;2023-04-03T01:26:00;4.10;;;2.58;;
46757;SDS011;32509;47.750;-3.396;2023-04-03T01:28:32;5.55;;;2.90;;
46757;SDS011;32509;47.750;-3.396;2023-04-03T01:33:37;6.13;;;2.50;;
46757;SDS011;32509;47.750;-3.396;2023-04-03T01:36:03;9.07;;;3.13;;
46757;SDS011;32509;47.750;-3.396;2023-04-03T01:38:30;5.25;;;2.60;;
46757;SDS011;32509;47.750;-3.396;2023-04-03T01:40:55;5.30;;;3.15;;
46757;SDS011;32509;47.750;-3.396;2023-04-03T01:43:21;4.43;;;2.80;;
46757;SDS011;32509;47.750;-3.396;2023-04-03T01:45:47;5.90;;;2.92;;
46757;SDS011;32509;47.750;-3.396;2023-04-03T01:48:15;5.38;;;3.60;;
46757;SDS011;32509;47.750;-3.396;2023-04-03T01:50:41;4.97;;;2.53;;
46757;SDS011;32509;47.750;-3.396;2023-04-03T01:53:07;5.60;;;2.70;;
46757;SDS011;32509;47.750;-3.396;2023-04-03T01:55:33;4.43;;;2.63;;
46757;SDS011;32509;47.750;-3.396;2023-04-03T01:57:58;6.82;;;3.17;;
46757;SDS011;32509;47.750;-3.396;2023-04-03T02:00:24;7.18;;;3.42;;
46757;SDS011;32509;47.750;-3.396;2023-04-03T02:02:51;9.05;;;2.97;;
46757;SDS011;32509;47.750;-3.396;2023-04-03T02:05:17;4.90;;;2.50;;
46757;SDS011;32509;47.750;-3.396;2023-04-03T02:07:43;5.65;;;3.00;;
46757;SDS011;32509;47.750;-3.396;2023-04-03T02:10:09;5.80;;;2.67;;
46757;SDS011;32509;47.750;-3.396;2023-04-03T02:12:35;4.07;;;2.45;;
46757;SDS011;32509;47.750;-3.396;2023-04-03T02:15:01;5.57;;;2.55;;
46757;SDS011;32509;47.750;-3.396;2023-04-03T02:17:27;5.63;;;2.85;;
46757;SDS011;32509;47.750;-3.396;2023-04-03T02:19:53;4.38;;;3.00;;
46757;SDS011;32509;47.750;-3.396;2023-04-03T02:22:18;5.80;;;2.75;;
46757;SDS011;32509;47.750;-3.396;2023-04-03T02:24:45;6.80;;;2.63;;
46757;SDS011;32509;47.750;-3.396;2023-04-03T02:27:11;5.22;;;2.40;;
46757;SDS011;32509;47.750;-3.396;2023-04-03T02:29:37;5.03;;;3.05;;
46757;SDS011;32509;47.750;-3.396;2023-04-03T02:32:02;4.60;;;2.65;;
46757;SDS011;32509;47.750;-3.396;2023-04-03T02:34:28;4.32;;;2.63;;
46757;SDS011;32509;47.750;-3.396;2023-04-03T02:36:54;4.03;;;2.60;;
46757;SDS011;32509;47.750;-3.396;2023-04-03T02:39:20;6.32;;;3.50;;
46757;SDS011;32509;47.750;-3.396;2023-04-03T02:41:46;4.97;;;2.80;;
46757;SDS011;32509;47.750;-3.396;2023-04-03T02:44:12;3.67;;;2.40;;
46757;SDS011;32509;47.750;-3.396;2023-04-03T02:46:38;3.63;;;2.72;;
46757;SDS011;32509;47.750;-3.396;2023-04-03T02:49:04;5.85;;;2.80;;
46757;SDS011;32509;47.750;-3.396;2023-04-03T02:51:30;7.47;;;2.47;;
46757;SDS011;32509;47.750;-3.396;2023-04-03T02:53:56;5.63;;;2.58;;
46757;SDS011;32509;47.750;-3.396;2023-04-03T02:56:22;5.07;;;2.75;;
46757;SDS011;32509;47.750;-3.396;2023-04-03T02:58:48;6.03;;;2.70;;
46757;SDS011;32509;47.750;-3.396;2023-04-03T03:01:14;6.20;;;2.85;;
46757;SDS011;32509;47.750;-3.396;2023-04-03T03:03:40;5.10;;;2.88;;
46757;SDS011;32509;47.750;-3.396;2023-04-03T03:06:06;4.78;;;2.83;;
46757;SDS011;32509;47.750;-3.396;2023-04-03T03:08:35;3.10;;;2.50;;
46757;SDS011;32509;47.750;-3.396;2023-04-03T03:11:01;4.15;;;2.80;;
46757;SDS011;32509;47.750;-3.396;2023-04-03T03:13:27;5.57;;;2.83;;
46757;SDS011;32509;47.750;-3.396;2023-04-03T03:15:53;3.10;;;2.30;;
46757;SDS011;32509;47.750;-3.396;2023-04-03T03:18:18;8.32;;;3.35;;
46757;SDS011;32509;47.750;-3.396;2023-04-03T03:20:44;4.22;;;2.80;;
46757;SDS011;32509;47.750;-3.396;2023-04-03T03:23:10;4.85;;;2.58;;
46757;SDS011;32509;47.750;-3.396;2023-04-03T03:25:39;3.42;;;2.60;;
46757;SDS011;32509;47.750;-3.396;2023-04-03T03:28:06;6.75;;;2.67;;
46757;SDS011;32509;47.750;-3.396;2023-04-03T03:30:32;5.80;;;2.70;;
46757;SDS011;32509;47.750;-3.396;2023-04-03T03:32:58;3.60;;;2.58;;
46757;SDS011;32509;47.750;-3.396;2023-04-03T03:35:24;2.65;;;2.20;;
46757;SDS011;32509;47.750;-3.396;2023-04-03T03:37:50;5.47;;;2.60;;
46757;SDS011;32509;47.750;-3.396;2023-04-03T03:40:16;3.50;;;2.97;;
46757;SDS011;32509;47.750;-3.396;2023-04-03T03:42:42;6.43;;;2.95;;
46757;SDS011;32509;47.750;-3.396;2023-04-03T03:45:08;6.60;;;4.57;;
46757;SDS011;32509;47.750;-3.396;2023-04-03T03:47:34;2.88;;;2.35;;
46757;SDS011;32509;47.750;-3.396;2023-04-03T03:50:00;6.45;;;2.92;;
46757;SDS011;32509;47.750;-3.396;2023-04-03T03:52:26;6.47;;;3.45;;
46757;SDS011;32509;47.750;-3.396;2023-04-03T03:54:52;2.92;;;2.58;;
46757;SDS011;32509;47.750;-3.396;2023-04-03T03:57:18;3.20;;;2.90;;
46757;SDS011;32509;47.750;-3.396;2023-04-03T03:59:43;4.70;;;2.58;;
46757;SDS011;32509;47.750;-3.396;2023-04-03T04:02:10;3.92;;;3.22;;
46757;SDS011;32509;47.750;-3.396;2023-04-03T04:04:36;8.10;;;3.75;;
46757;SDS011;32509;47.750;-3.396;2023-04-03T04:07:02;6.95;;;3.08;;
46757;SDS011;32509;47.750;-3.396;2023-04-03T04:09:28;4.78;;;3.17;;
46757;SDS011;32509;47.750;-3.396;2023-04-03T04:11:54;5.78;;;2.70;;
46757;SDS011;32509;47.750;-3.396;2023-04-03T04:14:20;10.88;;;3.70;;
46757;SDS011;32509;47.750;-3.396;2023-04-03T04:16:46;3.95;;;2.63;;
46757;SDS011;32509;47.750;-3.396;2023-04-03T04:19:12;5.78;;;2.72;;
46757;SDS011;32509;47.750;-3.396;2023-04-03T04:21:39;7.22;;;3.70;;
46757;SDS011;32509;47.750;-3.396;2023-04-03T04:24:05;5.15;;;3.78;;
46757;SDS011;32509;47.750;-3.396;2023-04-03T04:26:31;5.05;;;4.18;;
46757;SDS011;32509;47.750;-3.396;2023-04-03T04:28:57;5.32;;;3.28;;
46757;SDS011;32509;47.750;-3.396;2023-04-03T04:31:22;15.68;;;5.20;;
46757;SDS011;32509;47.750;-3.396;2023-04-03T04:33:48;7.03;;;3.60;;
46757;SDS011;32509;47.750;-3.396;2023-04-03T04:36:14;5.72;;;3.97;;
46757;SDS011;32509;47.750;-3.396;2023-04-03T04:38:40;7.07;;;3.30;;
46757;SDS011;32509;47.750;-3.396;2023-04-03T04:41:06;3.72;;;3.20;;
46757;SDS011;32509;47.750;-3.396;2023-04-03T04:43:32;8.13;;;3.88;;
46757;SDS011;32509;47.750;-3.396;2023-04-03T04:46:05;4.47;;;3.28;;
46757;SDS011;32509;47.750;-3.396;2023-04-03T04:48:33;7.65;;;3.30;;
46757;SDS011;32509;47.750;-3.396;2023-04-03T04:51:00;10.68;;;3.55;;
46757;SDS011;32509;47.750;-3.396;2023-04-03T04:53:26;11.05;;;4.15;;
46757;SDS011;32509;47.750;-3.396;2023-04-03T04:55:52;12.82;;;4.05;;
46757;SDS011;32509;47.750;-3.396;2023-04-03T04:58:18;10.82;;;4.25;;
46757;SDS011;32509;47.750;-3.396;2023-04-03T05:00:44;8.55;;;3.75;;
46757;SDS011;32509;47.750;-3.396;2023-04-03T05:03:10;7.28;;;3.35;;
46757;SDS011;32509;47.750;-3.396;2023-04-03T05:05:36;8.93;;;3.08;;
46757;SDS011;32509;47.750;-3.396;2023-04-03T05:08:02;8.75;;;3.72;;
46757;SDS011;32509;47.750;-3.396;2023-04-03T05:10:29;10.68;;;3.40;;
46757;SDS011;32509;47.750;-3.396;2023-04-03T05:12:55;8.65;;;3.60;;
46757;SDS011;32509;47.750;-3.396;2023-04-03T05:15:21;8.35;;;4.18;;
46757;SDS011;32509;47.750;-3.396;2023-04-03T05:17:46;6.60;;;3.22;;
46757;SDS011;32509;47.750;-3.396;2023-04-03T05:20:12;6.72;;;3.33;;
46757;SDS011;32509;47.750;-3.396;2023-04-03T05:22:38;5.93;;;2.92;;
46757;SDS011;32509;47.750;-3.396;2023-04-03T05:25:05;7.95;;;3.70;;
46757;SDS011;32509;47.750;-3.396;2023-04-03T05:27:31;8.82;;;3.42;;
46757;SDS011;32509;47.750;-3.396;2023-04-03T05:29:56;9.30;;;3.42;;
46757;SDS011;32509;47.750;-3.396;2023-04-03T05:32:23;8.52;;;3.30;;
46757;SDS011;32509;47.750;-3.396;2023-04-03T05:34:50;10.73;;;4.35;;
46757;SDS011;32509;47.750;-3.396;2023-04-03T05:37:16;9.32;;;4.32;;
46757;SDS011;32509;47.750;-3.396;2023-04-03T05:39:42;9.52;;;3.72;;
46757;SDS011;32509;47.750;-3.396;2023-04-03T05:42:08;11.23;;;3.28;;
46757;SDS011;32509;47.750;-3.396;2023-04-03T05:44:34;7.75;;;3.85;;
46757;SDS011;32509;47.750;-3.396;2023-04-03T05:47:00;11.20;;;3.65;;
46757;SDS011;32509;47.750;-3.396;2023-04-03T05:49:31;11.70;;;4.10;;
46757;SDS011;32509;47.750;-3.396;2023-04-03T05:51:57;13.77;;;3.80;;
46757;SDS011;32509;47.750;-3.396;2023-04-03T05:54:27;10.52;;;3.72;;
46757;SDS011;32509;47.750;-3.396;2023-04-03T05:56:55;13.63;;;3.83;;
46757;SDS011;32509;47.750;-3.396;2023-04-03T05:59:20;7.00;;;4.25;;
46757;SDS011;32509;47.750;-3.396;2023-04-03T06:01:47;10.27;;;4.60;;
46757;SDS011;32509;47.750;-3.396;2023-04-03T06:04:14;8.10;;;5.05;;
46757;SDS011;32509;47.750;-3.396;2023-04-03T06:06:44;7.70;;;3.95;;
46757;SDS011;32509;47.750;-3.396;2023-04-03T06:09:10;6.30;;;4.10;;
46757;SDS011;32509;47.750;-3.396;2023-04-03T06:11:36;10.65;;;4.68;;
46757;SDS011;32509;47.750;-3.396;2023-04-03T06:14:01;6.38;;;4.47;;
46757;SDS011;32509;47.750;-3.396;2023-04-03T06:16:28;7.68;;;4.13;;
46757;SDS011;32509;47.750;-3.396;2023-04-03T06:18:53;10.70;;;5.18;;
46757;SDS011;32509;47.750;-3.396;2023-04-03T06:21:20;17.08;;;5.63;;
46757;SDS011;32509;47.750;-3.396;2023-04-03T06:23:46;11.00;;;3.88;;
46757;SDS011;32509;47.750;-3.396;2023-04-03T06:26:11;11.32;;;3.85;;
46757;SDS011;32509;47.750;-3.396;2023-04-03T06:28:37;11.65;;;3.97;;
46757;SDS011;32509;47.750;-3.396;2023-04-03T06:31:03;11.18;;;4.20;;
46757;SDS011;32509;47.750;-3.396;2023-04-03T06:33:29;8.63;;;4.50;;
46757;SDS011;32509;47.750;-3.396;2023-04-03T06:35:56;14.20;;;3.95;;
46757;SDS011;32509;47.750;-3.396;2023-04-03T06:38:24;11.13;;;4.15;;
46757;SDS011;32509;47.750;-3.396;2023-04-03T06:40:50;9.35;;;3.70;;
46757;SDS011;32509;47.750;-3.396;2023-04-03T06:43:17;12.27;;;4.43;;
46757;SDS011;32509;47.750;-3.396;2023-04-03T06:45:42;11.52;;;4.15;;
46757;SDS011;32509;47.750;-3.396;2023-04-03T06:48:08;11.10;;;4.22;;
46757;SDS011;32509;47.750;-3.396;2023-04-03T06:50:34;10.32;;;4.70;;
46757;SDS011;32509;47.750;-3.396;2023-04-03T06:53:00;14.45;;;3.90;;
46757;SDS011;32509;47.750;-3.396;2023-04-03T06:55:26;8.73;;;3.45;;
46757;SDS011;32509;47.750;-3.396;2023-04-03T06:57:54;13.68;;;4.15;;
46757;SDS011;32509;47.750;-3.396;2023-04-03T07:00:23;9.40;;;3.80;;
46757;SDS011;32509;47.750;-3.396;2023-04-03T07:02:50;13.43;;;4.57;;
46757;SDS011;32509;47.750;-3.396;2023-04-03T07:05:16;9.57;;;4.47;;
46757;SDS011;32509;47.750;-3.396;2023-04-03T07:07:42;14.80;;;4.32;;
46757;SDS011;32509;47.750;-3.396;2023-04-03T07:10:08;11.77;;;4.43;;
46757;SDS011;32509;47.750;-3.396;2023-04-03T07:12:35;10.00;;;3.65;;
46757;SDS011;32509;47.750;-3.396;2023-04-03T07:15:01;7.70;;;3.22;;
46757;SDS011;32509;47.750;-3.396;2023-04-03T07:17:27;6.95;;;3.40;;
46757;SDS011;32509;47.750;-3.396;2023-04-03T07:19:53;11.68;;;3.92;;
46757;SDS011;32509;47.750;-3.396;2023-04-03T07:22:19;13.48;;;3.55;;
46757;SDS011;32509;47.750;-3.396;2023-04-03T07:24:45;6.18;;;3.25;;
46757;SDS011;32509;47.750;-3.396;2023-04-03T07:27:11;11.70;;;3.85;;
46757;SDS011;32509;47.750;-3.396;2023-04-03T07:29:37;10.85;;;3.80;;
46757;SDS011;32509;47.750;-3.396;2023-04-03T07:32:03;10.40;;;3.25;;
46757;SDS011;32509;47.750;-3.396;2023-04-03T07:34:30;14.70;;;5.32;;
46757;SDS011;32509;47.750;-3.396;2023-04-03T07:36:57;10.35;;;5.05;;
46757;SDS011;32509;47.750;-3.396;2023-04-03T07:39:24;16.40;;;3.70;;
46757;SDS011;32509;47.750;-3.396;2023-04-03T07:41:50;10.48;;;2.97;;
46757;SDS011;32509;47.750;-3.396;2023-04-03T07:44:16;9.88;;;3.97;;
46757;SDS011;32509;47.750;-3.396;2023-04-03T07:46:42;12.02;;;3.80;;
46757;SDS011;32509;47.750;-3.396;2023-04-03T07:49:08;9.25;;;3.35;;
46757;SDS011;32509;47.750;-3.396;2023-04-03T07:51:34;11.43;;;3.50;;
46757;SDS011;32509;47.750;-3.396;2023-04-03T07:54:00;10.05;;;2.90;;
46757;SDS011;32509;47.750;-3.396;2023-04-03T07:56:26;15.25;;;3.92;;
46757;SDS011;32509;47.750;-3.396;2023-04-03T07:58:52;12.43;;;2.70;;
46757;SDS011;32509;47.750;-3.396;2023-04-03T08:01:18;10.18;;;3.72;;
46757;SDS011;32509;47.750;-3.396;2023-04-03T08:03:44;6.63;;;2.65;;
46757;SDS011;32509;47.750;-3.396;2023-04-03T08:06:10;11.50;;;3.67;;
46757;SDS011;32509;47.750;-3.396;2023-04-03T08:08:36;9.02;;;2.85;;
46757;SDS011;32509;47.750;-3.396;2023-04-03T08:11:02;10.18;;;4.05;;
46757;SDS011;32509;47.750;-3.396;2023-04-03T08:13:30;8.88;;;2.33;;
46757;SDS011;32509;47.750;-3.396;2023-04-03T08:15:56;11.18;;;3.85;;
46757;SDS011;32509;47.750;-3.396;2023-04-03T08:18:23;10.05;;;3.05;;
46757;SDS011;32509;47.750;-3.396;2023-04-03T08:20:50;6.05;;;2.50;;
46757;SDS011;32509;47.750;-3.396;2023-04-03T08:23:16;12.75;;;3.20;;
46757;SDS011;32509;47.750;-3.396;2023-04-03T08:25:43;10.15;;;2.95;;
46757;SDS011;32509;47.750;-3.396;2023-04-03T08:28:10;10.48;;;3.67;;
46757;SDS011;32509;47.750;-3.396;2023-04-03T08:30:38;7.28;;;3.00;;
46757;SDS011;32509;47.750;-3.396;2023-04-03T08:33:06;7.60;;;2.55;;
46757;SDS011;32509;47.750;-3.396;2023-04-03T08:35:37;7.60;;;2.90;;
46757;SDS011;32509;47.750;-3.396;2023-04-03T08:38:07;9.25;;;4.22;;
46757;SDS011;32509;47.750;-3.396;2023-04-03T08:40:33;10.65;;;2.70;;
46757;SDS011;32509;47.750;-3.396;2023-04-03T08:45:55;8.65;;;3.55;;
46757;SDS011;32509;47.750;-3.396;2023-04-03T08:48:36;10.32;;;3.63;;
46757;SDS011;32509;47.750;-3.396;2023-04-03T08:51:10;7.20;;;2.78;;
46757;SDS011;32509;47.750;-3.396;2023-04-03T08:53:41;7.07;;;2.85;;
46757;SDS011;32509;47.750;-3.396;2023-04-03T08:56:14;9.05;;;2.58;;
46757;SDS011;32509;47.750;-3.396;2023-04-03T08:59:06;6.05;;;2.70;;
46757;SDS011;32509;47.750;-3.396;2023-04-03T09:04:02;8.95;;;2.42;;
46757;SDS011;32509;47.750;-3.396;2023-04-03T09:06:35;7.72;;;2.80;;
46757;SDS011;32509;47.750;-3.396;2023-04-03T09:09:15;5.15;;;2.47;;
46757;SDS011;32509;47.750;-3.396;2023-04-03T09:12:12;6.32;;;2.25;;
46757;SDS011;32509;47.750;-3.396;2023-04-03T09:26:23;11.30;;;3.10;;
46757;SDS011;32509;47.750;-3.396;2023-04-03T09:28:54;8.23;;;2.60;;
46757;SDS011;32509;47.750;-3.396;2023-04-03T09:31:30;12.43;;;4.10;;
46757;SDS011;32509;47.750;-3.396;2023-04-03T09:34:03;12.43;;;3.63;;
46757;SDS011;32509;47.750;-3.396;2023-04-03T09:36:48;9.00;;;2.63;;
46757;SDS011;32509;47.750;-3.396;2023-04-03T09:39:19;5.38;;;2.95;;
46757;SDS011;32509;47.750;-3.396;2023-04-03T09:42:32;8.68;;;2.60;;
46757;SDS011;32509;47.750;-3.396;2023-04-03T09:44:53;6.90;;;3.05;;
46757;SDS011;32509;47.750;-3.396;2023-04-03T09:47:27;9.70;;;2.53;;
46757;SDS011;32509;47.750;-3.396;2023-04-03T09:52:38;9.52;;;3.20;;
46757;SDS011;32509;47.750;-3.396;2023-04-03T09:55:13;9.25;;;3.33;;
46757;SDS011;32509;47.750;-3.396;2023-04-03T09:57:47;10.48;;;3.47;;
46757;SDS011;32509;47.750;-3.396;2023-04-03T10:00:28;10.55;;;2.85;;
46757;SDS011;32509;47.750;-3.396;2023-04-03T10:03:01;8.75;;;2.90;;
46757;SDS011;32509;47.750;-3.396;2023-04-03T10:05:35;9.05;;;3.20;;
46757;SDS011;32509;47.750;-3.396;2023-04-03T10:10:39;10.30;;;3.33;;
46757;SDS011;32509;47.750;-3.396;2023-04-03T10:13:19;6.88;;;2.95;;
46757;SDS011;32509;47.750;-3.396;2023-04-03T10:15:53;7.07;;;3.42;;
46757;SDS011;32509;47.750;-3.396;2023-04-03T10:29:39;10.98;;;4.05;;
46757;SDS011;32509;47.750;-3.396;2023-04-03T10:35:02;8.80;;;3.30;;
46757;SDS011;32509;47.750;-3.396;2023-04-03T10:37:53;7.00;;;3.38;;
46757;SDS011;32509;47.750;-3.396;2023-04-03T10:43:15;10.57;;;3.17;;
46757;SDS011;32509;47.750;-3.396;2023-04-03T10:51:33;7.97;;;3.55;;
46757;SDS011;32509;47.750;-3.396;2023-04-03T10:54:08;6.80;;;3.38;;
46757;SDS011;32509;47.750;-3.396;2023-04-03T10:56:52;7.68;;;3.78;;
46757;SDS011;32509;47.750;-3.396;2023-04-03T11:02:33;9.05;;;3.75;;
46757;SDS011;32509;47.750;-3.396;2023-04-03T11:07:57;10.65;;;4.32;;
46757;SDS011;32509;47.750;-3.396;2023-04-03T11:10:51;10.55;;;4.13;;
46757;SDS011;32509;47.750;-3.396;2023-04-03T11:13:28;9.00;;;4.05;;
46757;SDS011;32509;47.750;-3.396;2023-04-03T11:15:56;6.80;;;4.05;;
46757;SDS011;32509;47.750;-3.396;2023-04-03T11:18:37;15.30;;;4.93;;
46757;SDS011;32509;47.750;-3.396;2023-04-03T11:21:19;10.48;;;3.15;;
46757;SDS011;32509;47.750;-3.396;2023-04-03T11:23:49;8.38;;;3.83;;
46757;SDS011;32509;47.750;-3.396;2023-04-03T11:28:43;9.93;;;3.58;;
46757;SDS011;32509;47.750;-3.396;2023-04-03T11:33:40;5.60;;;3.20;;
46757;SDS011;32509;47.750;-3.396;2023-04-03T11:38:47;6.50;;;3.40;;
46757;SDS011;32509;47.750;-3.396;2023-04-03T11:41:16;10.82;;;4.25;;
46757;SDS011;32509;47.750;-3.396;2023-04-03T11:44:06;8.48;;;4.07;;
46757;SDS011;32509;47.750;-3.396;2023-04-03T11:46:52;6.93;;;3.65;;
46757;SDS011;32509;47.750;-3.396;2023-04-03T11:55:48;8.70;;;4.95;;
46757;SDS011;32509;47.750;-3.396;2023-04-03T12:16:50;7.70;;;4.32;;
46757;SDS011;32509;47.750;-3.396;2023-04-03T12:27:14;7.00;;;3.65;;
46757;SDS011;32509;47.750;-3.396;2023-04-03T12:29:40;7.20;;;4.25;;
46757;SDS011;32509;47.750;-3.396;2023-04-03T12:46:12;4.57;;;3.67;;
46757;SDS011;32509;47.750;-3.396;2023-04-03T12:51:13;11.10;;;4.43;;
46757;SDS011;32509;47.750;-3.396;2023-04-03T12:53:40;7.78;;;4.00;;
46757;SDS011;32509;47.750;-3.396;2023-04-03T12:56:27;9.95;;;4.50;;
46757;SDS011;32509;47.750;-3.396;2023-04-03T12:59:12;7.63;;;4.40;;
46757;SDS011;32509;47.750;-3.396;2023-04-03T13:01:43;13.73;;;5.13;;
46757;SDS011;32509;47.750;-3.396;2023-04-03T13:04:17;6.32;;;3.85;;
46757;SDS011;32509;47.750;-3.396;2023-04-03T13:06:43;7.95;;;5.25;;
46757;SDS011;32509;47.750;-3.396;2023-04-03T13:09:20;11.07;;;4.70;;
46757;SDS011;32509;47.750;-3.396;2023-04-03T13:11:51;14.15;;;4.60;;
46757;SDS011;32509;47.750;-3.396;2023-04-03T13:14:22;7.47;;;3.50;;
46757;SDS011;32509;47.750;-3.396;2023-04-03T13:19:39;6.00;;;4.35;;
46757;SDS011;32509;47.750;-3.396;2023-04-03T13:22:22;14.90;;;5.38;;
46757;SDS011;32509;47.750;-3.396;2023-04-03T13:24:55;7.72;;;4.70;;
46757;SDS011;32509;47.750;-3.396;2023-04-03T13:27:23;5.28;;;3.75;;
46757;SDS011;32509;47.750;-3.396;2023-04-03T13:29:51;10.05;;;4.38;;
46757;SDS011;32509;47.750;-3.396;2023-04-03T13:32:23;7.57;;;3.80;;
46757;SDS011;32509;47.750;-3.396;2023-04-03T13:34:50;10.15;;;4.22;;
46757;SDS011;32509;47.750;-3.396;2023-04-03T13:42:35;8.65;;;4.88;;
46757;SDS011;32509;47.750;-3.396;2023-04-03T13:45:20;6.95;;;4.25;;
46757;SDS011;32509;47.750;-3.396;2023-04-03T13:47:55;7.50;;;4.28;;
46757;SDS011;32509;47.750;-3.396;2023-04-03T13:50:57;9.43;;;5.20;;
46757;SDS011;32509;47.750;-3.396;2023-04-03T13:53:26;5.05;;;4.00;;
46757;SDS011;32509;47.750;-3.396;2023-04-03T13:55:56;9.52;;;5.10;;
46757;SDS011;32509;47.750;-3.396;2023-04-03T13:58:26;10.18;;;4.03;;
46757;SDS011;32509;47.750;-3.396;2023-04-03T14:00:55;6.00;;;4.10;;
46757;SDS011;32509;47.750;-3.396;2023-04-03T14:03:43;12.55;;;4.93;;
46757;SDS011;32509;47.750;-3.396;2023-04-03T14:06:13;8.85;;;4.95;;
46757;SDS011;32509;47.750;-3.396;2023-04-03T14:08:42;14.77;;;4.95;;
46757;SDS011;32509;47.750;-3.396;2023-04-03T14:11:10;9.27;;;4.63;;
46757;SDS011;32509;47.750;-3.396;2023-04-03T14:13:40;10.60;;;4.22;;
46757;SDS011;32509;47.750;-3.396;2023-04-03T14:16:06;13.38;;;4.78;;
46757;SDS011;32509;47.750;-3.396;2023-04-03T14:18:32;10.82;;;4.72;;
46757;SDS011;32509;47.750;-3.396;2023-04-03T14:20:58;9.45;;;5.03;;
46757;SDS011;32509;47.750;-3.396;2023-04-03T14:23:24;7.15;;;4.90;;
46757;SDS011;32509;47.750;-3.396;2023-04-03T14:25:50;15.10;;;5.25;;
46757;SDS011;32509;47.750;-3.396;2023-04-03T14:28:17;8.43;;;5.05;;
46757;SDS011;32509;47.750;-3.396;2023-04-03T14:30:46;8.30;;;5.18;;
46757;SDS011;32509;47.750;-3.396;2023-04-03T14:33:14;6.90;;;5.18;;
46757;SDS011;32509;47.750;-3.396;2023-04-03T14:35:45;6.78;;;4.47;;
46757;SDS011;32509;47.750;-3.396;2023-04-03T14:38:22;9.60;;;4.80;;
46757;SDS011;32509;47.750;-3.396;2023-04-03T14:40:50;8.57;;;4.57;;
46757;SDS011;32509;47.750;-3.396;2023-04-03T14:43:17;9.48;;;4.47;;
46757;SDS011;32509;47.750;-3.396;2023-04-03T14:45:43;8.27;;;4.18;;
46757;SDS011;32509;47.750;-3.396;2023-04-03T14:48:12;7.65;;;5.22;;
46757;SDS011;32509;47.750;-3.396;2023-04-03T14:50:51;7.78;;;5.13;;
46757;SDS011;32509;47.750;-3.396;2023-04-03T14:53:18;5.93;;;4.40;;
46757;SDS011;32509;47.750;-3.396;2023-04-03T14:55:47;7.43;;;4.18;;
46757;SDS011;32509;47.750;-3.396;2023-04-03T14:58:15;5.60;;;4.22;;
46757;SDS011;32509;47.750;-3.396;2023-04-03T15:00:42;7.38;;;4.35;;
46757;SDS011;32509;47.750;-3.396;2023-04-03T15:03:15;5.40;;;4.88;;
46757;SDS011;32509;47.750;-3.396;2023-04-03T15:05:43;11.10;;;4.80;;
46757;SDS011;32509;47.750;-3.396;2023-04-03T15:08:17;5.57;;;3.88;;
46757;SDS011;32509;47.750;-3.396;2023-04-03T15:10:44;4.53;;;3.88;;
46757;SDS011;32509;47.750;-3.396;2023-04-03T15:13:10;6.80;;;4.07;;
46757;SDS011;32509;47.750;-3.396;2023-04-03T15:15:37;4.95;;;4.40;;
46757;SDS011;32509;47.750;-3.396;2023-04-03T15:18:03;7.57;;;4.28;;
46757;SDS011;32509;47.750;-3.396;2023-04-03T15:20:29;7.28;;;4.30;;
46757;SDS011;32509;47.750;-3.396;2023-04-03T15:22:58;7.57;;;4.32;;
46757;SDS011;32509;47.750;-3.396;2023-04-03T15:25:26;7.15;;;3.85;;
46757;SDS011;32509;47.750;-3.396;2023-04-03T15:27:55;9.20;;;4.55;;
46757;SDS011;32509;47.750;-3.396;2023-04-03T15:30:22;7.45;;;4.97;;
46757;SDS011;32509;47.750;-3.396;2023-04-03T15:32:48;9.05;;;4.85;;
46757;SDS011;32509;47.750;-3.396;2023-04-03T15:35:14;8.30;;;4.78;;
46757;SDS011;32509;47.750;-3.396;2023-04-03T15:37:40;8.02;;;5.32;;
46757;SDS011;32509;47.750;-3.396;2023-04-03T15:40:06;7.75;;;5.10;;
46757;SDS011;32509;47.750;-3.396;2023-04-03T15:42:33;7.78;;;5.00;;
46757;SDS011;32509;47.750;-3.396;2023-04-03T15:44:58;5.90;;;4.18;;
46757;SDS011;32509;47.750;-3.396;2023-04-03T15:47:25;9.05;;;4.95;;
46757;SDS011;32509;47.750;-3.396;2023-04-03T15:49:51;11.88;;;5.70;;
46757;SDS011;32509;47.750;-3.396;2023-04-03T15:52:18;5.80;;;4.75;;
46757;SDS011;32509;47.750;-3.396;2023-04-03T15:54:44;7.53;;;4.57;;
46757;SDS011;32509;47.750;-3.396;2023-04-03T15:57:10;6.97;;;5.32;;
46757;SDS011;32509;47.750;-3.396;2023-04-03T15:59:35;6.93;;;5.32;;
46757;SDS011;32509;47.750;-3.396;2023-04-03T16:02:01;8.35;;;6.97;;
46757;SDS011;32509;47.750;-3.396;2023-04-03T16:04:30;8.55;;;6.53;;
46757;SDS011;32509;47.750;-3.396;2023-04-03T16:06:57;9.18;;;6.68;;
46757;SDS011;32509;47.750;-3.396;2023-04-03T16:09:26;7.93;;;5.88;;
46757;SDS011;32509;47.750;-3.396;2023-04-03T16:11:52;7.32;;;6.47;;
46757;SDS011;32509;47.750;-3.396;2023-04-03T16:14:18;11.02;;;6.00;;
46757;SDS011;32509;47.750;-3.396;2023-04-03T16:16:44;9.02;;;7.10;;
46757;SDS011;32509;47.750;-3.396;2023-04-03T16:19:10;6.72;;;5.78;;
46757;SDS011;32509;47.750;-3.396;2023-04-03T16:21:35;8.52;;;7.05;;
46757;SDS011;32509;47.750;-3.396;2023-04-03T16:24:01;7.20;;;5.97;;
46757;SDS011;32509;47.750;-3.396;2023-04-03T16:26:28;7.22;;;6.25;;
46757;SDS011;32509;47.750;-3.396;2023-04-03T16:28:54;6.72;;;6.07;;
46757;SDS011;32509;47.750;-3.396;2023-04-03T16:31:20;9.95;;;6.82;;
46757;SDS011;32509;47.750;-3.396;2023-04-03T16:33:46;11.80;;;6.28;;
46757;SDS011;32509;47.750;-3.396;2023-04-03T16:36:12;7.00;;;6.30;;
46757;SDS011;32509;47.750;-3.396;2023-04-03T16:38:38;8.27;;;7.47;;